createdAt,value
2019-01-29T00:02:04.046Z,0.80
2019-01-29T00:04:34.177Z,0.80
2019-01-29T00:07:04.350Z,0.80
2019-01-29T00:09:34.351Z,0.70
2019-01-29T00:12:04.418Z,0.70
2019-01-29T00:14:34.409Z,0.70
2019-01-29T00:17:04.468Z,0.70
2019-01-29T00:19:34.513Z,0.70
2019-01-29T00:22:05.277Z,0.80
2019-01-29T00:24:35.246Z,0.80
2019-01-29T00:27:05.259Z,0.70
2019-01-29T00:29:35.250Z,0.70
2019-01-29T00:32:05.419Z,0.70
2019-01-29T00:34:35.476Z,0.60
2019-01-29T00:37:05.480Z,0.60
2019-01-29T00:39:35.563Z,0.60
2019-01-29T00:42:05.555Z,0.70
2019-01-29T00:44:35.634Z,0.70
2019-01-29T00:47:05.786Z,0.60
2019-01-29T00:49:36.043Z,0.70
2019-01-29T00:52:06.244Z,0.70
2019-01-29T00:54:36.339Z,0.60
2019-01-29T00:57:06.319Z,0.70
2019-01-29T00:59:36.464Z,0.70
2019-01-29T01:02:06.650Z,0.70
2019-01-29T01:04:36.758Z,0.70
2019-01-29T01:07:06.788Z,0.70
2019-01-29T01:09:36.870Z,0.70
2019-01-29T01:12:07.016Z,0.60
2019-01-29T01:14:37.081Z,0.60
2019-01-29T01:17:07.150Z,0.60
2019-01-29T01:19:37.920Z,0.70
2019-01-29T01:22:08.012Z,0.70
2019-01-29T01:24:38.048Z,0.70
2019-01-29T01:27:08.099Z,0.60
2019-01-29T01:29:38.177Z,0.70
2019-01-29T01:32:08.389Z,0.70
2019-01-29T01:34:40.202Z,0.80
2019-01-29T01:37:10.173Z,0.80
2019-01-29T01:39:40.224Z,0.80
2019-01-29T01:42:10.303Z,0.80
2019-01-29T01:44:40.311Z,0.80
2019-01-29T01:47:10.477Z,0.70
2019-01-29T01:49:40.568Z,0.70
2019-01-29T01:52:10.579Z,0.60
2019-01-29T01:54:40.653Z,0.60
2019-01-29T01:57:10.685Z,0.60
2019-01-29T01:59:40.750Z,0.60
2019-01-29T02:02:10.737Z,0.70
2019-01-29T02:04:40.811Z,0.70
2019-01-29T02:07:10.899Z,0.70
2019-01-29T02:09:40.988Z,0.70
2019-01-29T02:12:10.973Z,0.80
2019-01-29T02:14:40.954Z,0.80
2019-01-29T02:17:10.956Z,0.90
2019-01-29T02:19:41.005Z,0.90
2019-01-29T02:22:11.007Z,0.80
2019-01-29T02:24:41.007Z,0.80
2019-01-29T02:27:11.065Z,0.70
2019-01-29T02:29:41.151Z,0.60
2019-01-29T02:32:11.144Z,0.50
2019-01-29T02:34:41.236Z,0.40
2019-01-29T02:37:11.275Z,0.30
2019-01-29T02:39:41.261Z,0.30
2019-01-29T02:42:11.248Z,0.40
2019-01-29T02:44:41.233Z,0.40
2019-01-29T02:47:11.354Z,0.40
2019-01-29T02:49:41.409Z,0.50
2019-01-29T02:52:11.398Z,0.50
2019-01-29T02:54:41.389Z,0.50
2019-01-29T02:57:11.464Z,0.60
2019-01-29T02:59:41.450Z,0.50
2019-01-29T03:02:11.536Z,0.60
2019-01-29T03:04:41.600Z,0.60
2019-01-29T03:07:11.728Z,0.60
2019-01-29T03:09:41.803Z,0.50
2019-01-29T03:12:11.872Z,0.40
2019-01-29T03:14:41.866Z,0.40
2019-01-29T03:17:11.920Z,0.40
2019-01-29T03:19:41.892Z,0.40
2019-01-29T03:22:11.984Z,0.30
2019-01-29T03:24:42.041Z,0.30
2019-01-29T03:27:12.094Z,0.20
2019-01-29T03:29:42.106Z,0.20
2019-01-29T03:32:12.141Z,0.20
2019-01-29T03:34:42.144Z,0.30
2019-01-29T03:37:12.204Z,0.30
2019-01-29T03:39:42.222Z,0.20
2019-01-29T03:42:12.313Z,0.20
2019-01-29T03:44:42.340Z,0.30
2019-01-29T03:47:12.339Z,0.30
2019-01-29T03:49:42.349Z,0.20
2019-01-29T03:52:12.388Z,0.20
2019-01-29T03:54:42.398Z,0.20
2019-01-29T03:57:12.426Z,0.20
2019-01-29T03:59:42.485Z,0.20
2019-01-29T04:02:12.541Z,0.20
2019-01-29T04:04:42.533Z,0.20
2019-01-29T04:07:12.550Z,0.20
2019-01-29T04:09:42.615Z,0.20
2019-01-29T04:12:12.681Z,0.00
2019-01-29T04:14:42.812Z,0.00
2019-01-29T04:17:14.343Z,0.00
2019-01-29T04:19:44.504Z,-0.10
2019-01-29T04:22:14.507Z,-0.10
2019-01-29T04:24:44.495Z,-0.10
2019-01-29T04:27:14.505Z,-0.20
2019-01-29T04:29:44.475Z,-0.20
2019-01-29T04:32:14.451Z,-0.20
2019-01-29T04:34:44.525Z,-0.30
2019-01-29T04:37:14.531Z,-0.30
2019-01-29T04:39:44.581Z,-0.30
2019-01-29T04:42:14.637Z,-0.30
2019-01-29T04:44:44.797Z,-0.30
2019-01-29T04:47:14.872Z,-0.20
2019-01-29T04:49:44.995Z,-0.10
2019-01-29T04:52:15.118Z,0.00
2019-01-29T04:54:45.200Z,0.00
2019-01-29T04:57:15.252Z,-0.10
2019-01-29T04:59:45.246Z,-0.10
2019-01-29T05:02:15.318Z,-0.10
2019-01-29T05:04:45.310Z,-0.10
2019-01-29T05:07:15.380Z,-0.10
2019-01-29T05:09:45.364Z,-0.10
2019-01-29T05:12:15.422Z,-0.10
2019-01-29T05:14:45.468Z,-0.20
2019-01-29T05:17:15.546Z,-0.10
2019-01-29T05:19:45.606Z,-0.10
2019-01-29T05:22:15.604Z,-0.30
2019-01-29T05:24:45.600Z,-0.40
2019-01-29T05:27:15.630Z,-0.50
2019-01-29T05:29:45.762Z,-0.50
2019-01-29T05:32:15.782Z,-0.60
2019-01-29T05:34:45.861Z,-0.60
2019-01-29T05:37:15.976Z,-0.60
2019-01-29T05:39:45.963Z,-0.60
2019-01-29T05:42:16.040Z,-0.50
2019-01-29T05:44:46.103Z,-0.40
2019-01-29T05:47:16.124Z,-0.40
2019-01-29T05:49:46.118Z,-0.30
2019-01-29T05:52:16.162Z,-0.20
2019-01-29T05:54:46.150Z,-0.10
2019-01-29T05:57:16.215Z,-0.10
2019-01-29T05:59:46.203Z,-0.10
2019-01-29T06:02:16.299Z,0.00
2019-01-29T06:04:46.302Z,-0.10
2019-01-29T06:07:16.292Z,0.00
2019-01-29T06:09:46.265Z,0.10
2019-01-29T06:12:16.242Z,0.10
2019-01-29T06:14:46.329Z,0.10
2019-01-29T06:17:16.317Z,0.00
2019-01-29T06:19:46.293Z,0.10
2019-01-29T06:22:16.358Z,0.00
2019-01-29T06:24:46.333Z,-0.10
2019-01-29T06:27:16.411Z,-0.10
2019-01-29T06:29:46.419Z,-0.20
2019-01-29T06:32:16.473Z,-0.10
2019-01-29T06:34:46.511Z,-0.20
2019-01-29T06:37:16.574Z,-0.10
2019-01-29T06:39:47.061Z,-0.20
2019-01-29T06:42:17.151Z,-0.20
2019-01-29T06:44:47.219Z,-0.30
2019-01-29T06:47:17.361Z,-0.30
2019-01-29T06:49:47.436Z,-0.40
2019-01-29T06:52:17.443Z,-0.50
2019-01-29T06:54:47.619Z,-0.50
2019-01-29T06:57:17.753Z,-0.60
2019-01-29T06:59:47.836Z,-0.70
2019-01-29T07:02:18.033Z,-0.70
2019-01-29T07:04:48.162Z,-0.80
2019-01-29T07:07:18.225Z,-0.80
2019-01-29T07:09:48.304Z,-0.70
2019-01-29T07:12:18.463Z,-0.80
2019-01-29T07:14:48.570Z,-0.70
2019-01-29T07:17:37.675Z,-0.60
2019-01-29T07:20:10.446Z,-0.50
2019-01-29T07:22:40.503Z,-0.50
2019-01-29T07:25:11.340Z,-0.30
2019-01-29T07:27:41.320Z,-0.20
2019-01-29T07:30:13.808Z,0.00
2019-01-29T07:32:43.874Z,0.20
2019-01-29T07:35:13.956Z,0.50
2019-01-29T07:37:44.024Z,0.90
2019-01-29T07:40:14.349Z,1.30
2019-01-29T07:42:44.364Z,1.70
2019-01-29T07:45:14.874Z,2.20
2019-01-29T07:47:44.944Z,2.80
2019-01-29T07:50:15.036Z,3.20
2019-01-29T07:52:45.310Z,3.70
2019-01-29T07:55:15.419Z,3.80
2019-01-29T07:57:45.474Z,3.50
2019-01-29T08:00:15.602Z,3.00
2019-01-29T08:02:47.012Z,2.70
2019-01-29T08:05:17.086Z,3.00
2019-01-29T08:07:47.224Z,3.60
2019-01-29T08:10:17.232Z,4.30
2019-01-29T08:12:47.340Z,4.70
2019-01-29T08:15:17.720Z,5.50
2019-01-29T08:17:48.062Z,6.30
2019-01-29T08:20:18.433Z,7.00
2019-01-29T08:22:48.544Z,7.90
2019-01-29T08:25:18.629Z,8.60
2019-01-29T08:27:48.708Z,8.60
2019-01-29T08:30:18.780Z,10.60
2019-01-29T08:32:48.876Z,12.40
2019-01-29T08:35:19.065Z,12.50
2019-01-29T08:37:49.141Z,10.50
2019-01-29T08:40:19.152Z,8.80
2019-01-29T08:42:49.155Z,7.50
2019-01-29T08:45:19.243Z,6.40
2019-01-29T08:47:49.328Z,5.70
2019-01-29T08:50:21.219Z,5.40
2019-01-29T08:52:54.891Z,5.20
2019-01-29T08:55:39.939Z,5.00
2019-01-29T08:58:11.483Z,4.40
2019-01-29T09:00:41.806Z,4.20
2019-01-29T09:03:11.898Z,4.40
2019-01-29T09:05:42.075Z,4.20
2019-01-29T09:08:13.226Z,4.00
2019-01-29T09:10:43.423Z,4.00
2019-01-29T09:13:13.485Z,4.00
2019-01-29T09:15:43.503Z,4.30
2019-01-29T09:18:13.647Z,4.40
2019-01-29T09:20:43.698Z,4.50
2019-01-29T09:23:13.797Z,4.80
2019-01-29T09:25:43.869Z,5.40
2019-01-29T09:28:18.460Z,6.10
2019-01-29T09:30:45.698Z,6.70
2019-01-29T09:33:15.792Z,7.40
2019-01-29T09:35:45.855Z,8.30
2019-01-29T09:38:15.951Z,12.00
2019-01-29T09:40:46.029Z,12.30
2019-01-29T09:43:16.208Z,10.30
2019-01-29T09:45:46.366Z,9.20
2019-01-29T09:48:16.450Z,7.90
2019-01-29T09:50:46.550Z,7.00
2019-01-29T09:53:16.628Z,6.80
2019-01-29T09:55:46.720Z,6.80
2019-01-29T09:58:16.799Z,7.10
2019-01-29T10:00:46.845Z,7.50
2019-01-29T10:03:17.102Z,7.40
2019-01-29T10:05:47.217Z,7.10
2019-01-29T10:08:17.375Z,7.30
2019-01-29T10:10:47.454Z,7.70
2019-01-29T10:13:17.540Z,8.20
2019-01-29T10:15:47.536Z,8.60
2019-01-29T10:18:17.627Z,9.40
2019-01-29T10:20:47.718Z,12.40
2019-01-29T10:23:17.796Z,17.00
2019-01-29T10:25:47.958Z,21.50
2019-01-29T10:28:18.046Z,24.60
2019-01-29T10:30:48.058Z,25.40
2019-01-29T10:33:18.240Z,25.10
2019-01-29T10:35:48.336Z,25.10
2019-01-29T10:38:18.498Z,25.70
2019-01-29T10:40:48.588Z,25.40
2019-01-29T10:43:18.616Z,26.30
2019-01-29T10:45:48.742Z,24.60
2019-01-29T10:48:18.841Z,23.00
2019-01-29T10:50:49.010Z,20.90
2019-01-29T10:53:19.147Z,17.90
2019-01-29T10:55:49.254Z,14.80
2019-01-29T10:58:19.375Z,12.00
2019-01-29T11:00:49.539Z,10.10
2019-01-29T11:03:19.691Z,12.40
2019-01-29T11:05:49.694Z,17.00
2019-01-29T11:08:19.757Z,19.60
2019-01-29T11:10:49.866Z,19.70
2019-01-29T11:13:19.957Z,16.40
2019-01-29T11:15:50.054Z,15.70
2019-01-29T11:18:20.111Z,14.90
2019-01-29T11:20:50.184Z,15.90
2019-01-29T11:23:20.181Z,18.50
2019-01-29T11:25:55.698Z,18.10
2019-01-29T11:28:22.205Z,15.50
2019-01-29T11:30:53.079Z,13.60
2019-01-29T11:33:23.161Z,11.80
2019-01-29T11:35:53.483Z,10.60
2019-01-29T11:38:23.535Z,11.00
2019-01-29T11:40:53.633Z,11.90
2019-01-29T11:43:23.688Z,10.80
2019-01-29T11:45:54.923Z,9.80
2019-01-29T11:48:25.064Z,8.90
2019-01-29T11:50:56.048Z,8.10
2019-01-29T11:53:26.166Z,7.60
2019-01-29T11:56:04.048Z,7.60
2019-01-29T11:58:28.575Z,7.30
2019-01-29T12:01:09.552Z,7.30
2019-01-29T12:03:39.629Z,7.10
2019-01-29T12:06:09.778Z,6.80
2019-01-29T12:08:39.910Z,6.40
2019-01-29T12:11:10.277Z,5.50
2019-01-29T12:13:40.668Z,4.90
2019-01-29T12:16:10.822Z,4.20
2019-01-29T12:18:40.992Z,3.90
2019-01-29T12:21:11.174Z,3.50
2019-01-29T12:23:41.290Z,3.50
2019-01-29T12:26:13.273Z,3.60
2019-01-29T12:28:43.195Z,3.70
2019-01-29T12:31:13.306Z,4.10
2019-01-29T12:33:43.978Z,4.30
2019-01-29T12:36:14.102Z,4.60
2019-01-29T12:38:44.534Z,5.40
2019-01-29T12:41:14.682Z,6.30
2019-01-29T12:43:44.690Z,6.90
2019-01-29T12:46:14.784Z,6.90
2019-01-29T12:48:44.920Z,6.70
2019-01-29T12:51:23.501Z,6.20
2019-01-29T12:53:53.572Z,5.70
2019-01-29T12:56:23.664Z,5.20
2019-01-29T12:58:53.716Z,4.80
2019-01-29T13:01:23.841Z,4.50
2019-01-29T13:03:53.909Z,4.30
2019-01-29T13:06:23.884Z,4.40
2019-01-29T13:08:54.029Z,4.30
2019-01-29T13:11:24.092Z,4.30
2019-01-29T13:13:54.064Z,4.60
2019-01-29T13:16:24.116Z,4.90
2019-01-29T13:18:54.192Z,5.20
2019-01-29T13:21:24.247Z,5.30
2019-01-29T13:23:54.339Z,5.00
2019-01-29T13:26:29.879Z,4.80
2019-01-29T13:28:56.120Z,4.60
2019-01-29T13:31:27.125Z,4.40
2019-01-29T13:33:57.157Z,4.30
2019-01-29T13:36:27.148Z,4.60
2019-01-29T13:38:57.192Z,4.00
2019-01-29T13:41:27.281Z,3.90
2019-01-29T13:43:57.341Z,3.80
2019-01-29T13:46:27.348Z,3.70
2019-01-29T13:48:57.439Z,3.60
2019-01-29T13:51:27.547Z,2.80
2019-01-29T13:53:57.633Z,3.30
2019-01-29T13:56:27.606Z,3.20
2019-01-29T13:58:57.603Z,3.00
2019-01-29T14:01:27.701Z,2.90
2019-01-29T14:04:05.819Z,2.80
2019-01-29T14:06:29.463Z,2.70
2019-01-29T14:08:59.441Z,2.80
2019-01-29T14:11:29.564Z,2.90
2019-01-29T14:13:59.701Z,3.10
2019-01-29T14:16:29.800Z,3.10
2019-01-29T14:18:59.882Z,3.00
2019-01-29T14:21:29.955Z,3.20
2019-01-29T14:24:00.024Z,3.10
2019-01-29T14:26:30.025Z,3.00
2019-01-29T14:29:00.083Z,3.00
2019-01-29T14:31:30.193Z,3.00
2019-01-29T14:34:00.300Z,3.00
2019-01-29T14:36:30.292Z,3.10
2019-01-29T14:39:22.739Z,3.20
2019-01-29T14:41:52.805Z,3.20
2019-01-29T14:44:25.776Z,3.10
2019-01-29T14:46:55.846Z,3.00
2019-01-29T14:49:26.022Z,2.90
2019-01-29T14:51:56.109Z,2.80
2019-01-29T14:54:26.100Z,2.70
2019-01-29T14:56:57.261Z,2.60
2019-01-29T14:59:27.429Z,2.50
2019-01-29T15:01:57.484Z,2.40
2019-01-29T15:04:27.549Z,2.20
2019-01-29T15:06:57.614Z,2.10
2019-01-29T15:09:27.687Z,1.90
2019-01-29T15:11:57.832Z,1.80
2019-01-29T15:14:27.916Z,1.70
2019-01-29T15:17:07.073Z,1.70
2019-01-29T15:19:37.226Z,1.50
2019-01-29T15:22:07.404Z,1.40
2019-01-29T15:24:37.496Z,1.40
2019-01-29T15:27:07.713Z,1.40
2019-01-29T15:29:37.914Z,1.30
2019-01-29T15:32:08.006Z,1.30
2019-01-29T15:34:38.149Z,1.10
2019-01-29T15:37:08.349Z,1.00
2019-01-29T15:39:38.487Z,0.90
2019-01-29T15:42:08.654Z,0.90
2019-01-29T15:44:38.655Z,0.90
2019-01-29T15:47:08.864Z,0.80
2019-01-29T15:49:38.981Z,0.70
2019-01-29T15:52:09.142Z,0.50
2019-01-29T15:54:39.306Z,0.40
2019-01-29T15:57:14.369Z,0.30
2019-01-29T15:59:42.920Z,0.20
2019-01-29T16:02:14.362Z,0.00
2019-01-29T16:04:44.581Z,-0.20
2019-01-29T16:07:14.778Z,-0.30
2019-01-29T16:09:44.919Z,-0.60
2019-01-29T16:12:15.101Z,-0.70
2019-01-29T16:14:45.323Z,-0.80
2019-01-29T16:17:16.962Z,-0.80
2019-01-29T16:19:47.231Z,-0.80
2019-01-29T16:22:17.413Z,-0.90
2019-01-29T16:24:47.582Z,-1.00
2019-01-29T16:27:22.802Z,-1.20
2019-01-29T16:29:49.862Z,-1.30
2019-01-29T16:32:20.015Z,-1.30
2019-01-29T16:34:50.267Z,-1.40
2019-01-29T16:37:20.410Z,-1.50
2019-01-29T16:39:50.605Z,-1.60
2019-01-29T16:42:20.969Z,-1.80
2019-01-29T16:44:51.240Z,-1.90
2019-01-29T16:47:21.384Z,-2.10
2019-01-29T16:49:51.618Z,-2.20
2019-01-29T16:52:22.100Z,-2.30
2019-01-29T16:54:52.228Z,-2.40
2019-01-29T16:57:31.219Z,-2.40
2019-01-29T16:59:54.286Z,-2.40
2019-01-29T17:02:24.576Z,-2.40
2019-01-29T17:04:54.722Z,-2.50
2019-01-29T17:07:25.058Z,-2.50
2019-01-29T17:09:55.294Z,-2.60
2019-01-29T17:12:26.641Z,-2.60
2019-01-29T17:14:56.755Z,-2.60
2019-01-29T17:17:26.972Z,-2.70
2019-01-29T17:19:57.182Z,-2.70
2019-01-29T17:22:27.413Z,-2.70
2019-01-29T17:24:57.624Z,-2.70
2019-01-29T17:27:29.903Z,-2.70
2019-01-29T17:30:00.253Z,-2.70
2019-01-29T17:32:31.225Z,-2.70
2019-01-29T17:35:01.449Z,-2.80
2019-01-29T17:37:31.730Z,-2.80
2019-01-29T17:40:01.990Z,-2.70
2019-01-29T17:42:32.957Z,-2.70
2019-01-29T17:45:03.498Z,-2.80
2019-01-29T17:47:34.766Z,-2.90
2019-01-29T17:50:06.611Z,-2.90
2019-01-29T17:52:36.799Z,-3.10
2019-01-29T17:55:08.548Z,-3.10
2019-01-29T17:57:38.812Z,-3.20
2019-01-29T18:00:14.530Z,-3.20
2019-01-29T18:02:45.148Z,-3.20
2019-01-29T18:05:16.509Z,-3.20
2019-01-29T18:07:46.668Z,-3.20
2019-01-29T18:10:17.242Z,-3.30
2019-01-29T18:12:49.291Z,-3.30
2019-01-29T18:15:21.735Z,-3.30
2019-01-29T18:17:52.009Z,-3.30
2019-01-29T18:20:22.562Z,-3.30
2019-01-29T18:22:52.913Z,-3.30
2019-01-29T18:25:23.210Z,-3.30
2019-01-29T18:28:01.003Z,-3.20
2019-01-29T18:30:30.571Z,-3.20
2019-01-29T18:33:01.169Z,-3.10
2019-01-29T18:35:32.377Z,-3.10
2019-01-29T18:38:03.000Z,-3.10
2019-01-29T18:40:44.124Z,-3.20
2019-01-29T18:43:15.423Z,-3.20
2019-01-29T18:48:36.191Z,-3.50
2019-01-29T18:51:09.148Z,-3.50
2019-01-29T18:53:41.202Z,-3.60
2019-01-29T18:56:12.826Z,-3.50
2019-01-29T18:58:43.843Z,-3.50
2019-01-29T19:01:14.142Z,-3.60
2019-01-29T19:03:45.224Z,-3.60
2019-01-29T19:06:23.073Z,-3.60
2019-01-29T19:08:55.324Z,-3.70
2019-01-29T19:11:26.370Z,-3.70
2019-01-29T19:13:57.690Z,-3.80
2019-01-29T19:16:28.999Z,-3.80
2019-01-29T19:19:00.178Z,-3.80
2019-01-29T19:21:33.351Z,-3.80
2019-01-29T19:24:05.671Z,-3.90
2019-01-29T19:26:38.276Z,-3.90
2019-01-29T19:29:09.429Z,-3.90
2019-01-29T19:31:41.074Z,-3.90
2019-01-29T19:34:12.592Z,-3.80
2019-01-29T19:36:44.421Z,-3.70
2019-01-29T19:39:16.304Z,-3.50
2019-01-29T19:41:49.744Z,-3.40
2019-01-29T19:44:23.323Z,-3.30
2019-01-29T19:46:54.047Z,-3.20
2019-01-29T19:49:25.441Z,-3.20
2019-01-29T19:52:00.951Z,-3.10
2019-01-29T19:54:33.791Z,-3.10
2019-01-29T19:57:04.620Z,-3.00
2019-01-29T19:59:35.330Z,-3.10
2019-01-29T20:02:06.744Z,-3.00
2019-01-29T20:04:39.853Z,-3.10
2019-01-29T20:07:11.110Z,-3.10
2019-01-29T20:09:41.602Z,-3.00
2019-01-29T20:12:12.176Z,-3.00
2019-01-29T20:14:42.932Z,-3.10
2019-01-29T20:17:14.021Z,-3.10
2019-01-29T20:19:46.989Z,-3.10
2019-01-29T20:22:17.684Z,-3.00
2019-01-29T20:24:48.444Z,-3.10
2019-01-29T20:27:19.392Z,-3.10
2019-01-29T20:29:52.193Z,-3.10
2019-01-29T20:32:25.042Z,-3.20
2019-01-29T20:34:57.951Z,-3.10
2019-01-29T20:37:29.425Z,-3.10
2019-01-29T20:40:01.067Z,-3.20
2019-01-29T20:42:33.600Z,-3.20
2019-01-29T20:45:04.510Z,-3.20
2019-01-29T20:47:34.933Z,-3.10
2019-01-29T20:50:08.114Z,-3.20
2019-01-29T20:52:38.728Z,-3.20
2019-01-29T20:55:11.637Z,-3.10
2019-01-29T20:57:41.699Z,-3.10
2019-01-29T21:00:18.216Z,-3.10
2019-01-29T21:02:48.768Z,-3.20
2019-01-29T21:05:20.218Z,-3.30
2019-01-29T21:07:50.689Z,-3.30
2019-01-29T21:10:23.117Z,-3.30
2019-01-29T21:12:53.741Z,-3.30
2019-01-29T21:15:24.454Z,-3.30
2019-01-29T21:17:55.297Z,-3.30
2019-01-29T21:20:28.426Z,-3.30
2019-01-29T21:23:01.405Z,-3.40
2019-01-29T21:25:32.633Z,-3.50
2019-01-29T21:28:02.831Z,-3.60
2019-01-29T21:30:35.391Z,-3.80
2019-01-29T21:33:05.749Z,-3.90
2019-01-29T21:35:37.175Z,-3.90
2019-01-29T21:38:07.987Z,-4.00
2019-01-29T21:40:38.247Z,-4.10
2019-01-29T21:43:08.706Z,-4.20
2019-01-29T21:45:39.103Z,-4.20
2019-01-29T21:48:09.724Z,-4.20
2019-01-29T21:50:39.980Z,-4.30
2019-01-29T21:53:10.138Z,-4.40
2019-01-29T21:55:40.474Z,-4.40
2019-01-29T21:58:10.656Z,-4.50
2019-01-29T22:00:46.230Z,-4.50
2019-01-29T22:03:17.614Z,-4.50
2019-01-29T22:05:47.784Z,-4.50
2019-01-29T22:08:17.916Z,-4.60
2019-01-29T22:10:48.108Z,-4.70
2019-01-29T22:13:18.218Z,-4.60
2019-01-29T22:15:48.300Z,-4.60
2019-01-29T22:18:18.540Z,-4.60
2019-01-29T22:20:48.697Z,-4.40
2019-01-29T22:23:18.876Z,-4.30
2019-01-29T22:25:48.981Z,-4.30
2019-01-29T22:28:18.987Z,-4.30
2019-01-29T22:30:49.071Z,-4.20
2019-01-29T22:33:19.155Z,-4.20
2019-01-29T22:35:49.211Z,-4.40
2019-01-29T22:38:19.266Z,-4.50
2019-01-29T22:40:49.269Z,-4.60
2019-01-29T22:43:19.277Z,-4.60
2019-01-29T22:45:49.352Z,-4.70
2019-01-29T22:48:19.363Z,-4.80
2019-01-29T22:50:49.416Z,-4.90
2019-01-29T22:53:19.420Z,-5.00
2019-01-29T22:55:49.422Z,-5.00
2019-01-29T22:58:19.419Z,-5.60
2019-01-29T23:01:08.872Z,-5.00
2019-01-29T23:04:00.467Z,-5.10
2019-01-29T23:07:01.379Z,-5.10
2019-01-29T23:09:31.423Z,-5.00
2019-01-29T23:12:01.505Z,-5.10
2019-01-29T23:14:31.505Z,-5.10
2019-01-29T23:17:01.511Z,-5.20
2019-01-29T23:19:31.571Z,-5.20
2019-01-29T23:22:01.573Z,-5.20
2019-01-29T23:24:31.653Z,-5.20
2019-01-29T23:27:01.701Z,-5.20
2019-01-29T23:29:31.759Z,-5.20
2019-01-29T23:32:01.789Z,-5.20
2019-01-29T23:34:31.845Z,-5.20
2019-01-29T23:37:01.853Z,-5.10
2019-01-29T23:39:31.925Z,-5.10
2019-01-29T23:42:03.474Z,-5.30
2019-01-29T23:44:33.500Z,-5.30
2019-01-29T23:47:03.501Z,-5.20
2019-01-29T23:49:33.568Z,-5.20
2019-01-29T23:52:03.554Z,-5.20
2019-01-29T23:54:33.593Z,-5.20
2019-01-29T23:57:03.671Z,-5.20
2019-01-29T23:59:33.732Z,-5.10
